Time;durP1;ratioP1;P1;durP2;ratioP2;P2;SDS_P1;SDS_P2;PMS_P1;PMS_P2;Temp;Humidity;BMP_temperature;BMP_pressure;BME280_temperature;BME280_humidity;BME280_pressure;Samples;Min_cycle;Max_cycle;Signal;HPM_P1;HPM_P2
2023/10/28 00:01:13;;;;;;;42.78;22.58;;;;;;;;;;5052455;28;20080;-63
2023/10/28 00:03:40;;;;;;;43.60;22.38;;;;;;;;;;5052770;28;20045;-63
2023/10/28 00:06:07;;;;;;;40.78;22.08;;;;;;;;;;5052528;28;20049;-63
2023/10/28 00:08:34;;;;;;;44.03;23.00;;;;;;;;;;5052332;28;20056;-63
2023/10/28 00:11:00;;;;;;;44.65;23.58;;;;;;;;;;5052530;28;20131;-63
2023/10/28 00:13:26;;;;;;;50.45;22.77;;;;;;;;;;5052507;28;20068;-63
2023/10/28 00:15:52;;;;;;;40.55;22.55;;;;;;;;;;5052194;28;20041;-63
2023/10/28 00:18:18;;;;;;;38.45;21.88;;;;;;;;;;5052515;28;20487;-63
2023/10/28 00:20:47;;;;;;;45.53;23.70;;;;;;;;;;5034355;28;20387;-63
2023/10/28 00:23:14;;;;;;;45.83;23.33;;;;;;;;;;5052200;28;20047;-63
2023/10/28 00:25:40;;;;;;;44.22;24.30;;;;;;;;;;5034480;28;20052;-63
2023/10/28 00:28:06;;;;;;;44.03;24.48;;;;;;;;;;5052272;28;20442;-63
2023/10/28 00:30:33;;;;;;;58.38;25.73;;;;;;;;;;5051274;28;20123;-63
2023/10/28 00:33:00;;;;;;;49.10;25.83;;;;;;;;;;5052048;28;20475;-63
2023/10/28 00:35:27;;;;;;;68.57;26.67;;;;;;;;;;5051682;28;20071;-63
2023/10/28 00:37:54;;;;;;;50.97;25.50;;;;;;;;;;5051607;28;20120;-63
2023/10/28 00:40:20;;;;;;;52.60;25.55;;;;;;;;;;5051942;28;20583;-63
2023/10/28 00:42:46;;;;;;;46.50;24.85;;;;;;;;;;5052119;28;20041;-63
2023/10/28 00:45:13;;;;;;;46.80;23.95;;;;;;;;;;5051669;28;20056;-63
2023/10/28 00:47:41;;;;;;;44.78;23.70;;;;;;;;;;5051821;28;20049;-63
2023/10/28 00:50:10;;;;;;;48.95;24.60;;;;;;;;;;5051903;28;20044;-63
2023/10/28 00:52:57;;;;;;;48.15;23.70;;;;;;;;;;5051423;28;20041;-63
2023/10/28 00:55:23;;;;;;;52.97;26.48;;;;;;;;;;5050403;28;20260;-63
2023/10/28 00:57:49;;;;;;;48.00;24.92;;;;;;;;;;5050975;28;20041;-63
2023/10/28 01:00:16;;;;;;;53.70;25.38;;;;;;;;;;5050647;28;20049;-63
2023/10/28 01:02:42;;;;;;;47.13;24.25;;;;;;;;;;5050650;28;20044;-63
2023/10/28 01:05:11;;;;;;;50.40;24.08;;;;;;;;;;5050768;28;20503;-63
2023/10/28 01:07:37;;;;;;;48.33;23.85;;;;;;;;;;5050436;28;20506;-63
2023/10/28 01:10:03;;;;;;;48.80;24.75;;;;;;;;;;5050500;28;20115;-63
2023/10/28 01:12:29;;;;;;;47.38;23.88;;;;;;;;;;5050696;28;20128;-63
2023/10/28 01:14:56;;;;;;;46.55;22.88;;;;;;;;;;5050015;28;20041;-63
2023/10/28 01:17:25;;;;;;;46.72;23.30;;;;;;;;;;5050515;28;20037;-63
2023/10/28 01:19:54;;;;;;;51.25;25.15;;;;;;;;;;5050536;28;20174;-63
2023/10/28 01:22:21;;;;;;;46.90;22.60;;;;;;;;;;5050019;28;20041;-63
2023/10/28 01:24:49;;;;;;;52.00;23.27;;;;;;;;;;5050447;28;20063;-63
2023/10/28 01:27:15;;;;;;;43.50;21.60;;;;;;;;;;5050400;28;20170;-63
2023/10/28 01:29:41;;;;;;;45.55;23.23;;;;;;;;;;5049744;28;20070;-63
2023/10/28 01:32:07;;;;;;;41.40;22.48;;;;;;;;;;5050426;28;20124;-63
2023/10/28 01:34:33;;;;;;;48.22;24.42;;;;;;;;;;5032429;28;20091;-63
2023/10/28 01:36:59;;;;;;;47.65;22.90;;;;;;;;;;5049698;28;20090;-63
2023/10/28 01:39:26;;;;;;;43.33;23.17;;;;;;;;;;5050175;28;20041;-63
2023/10/28 01:41:52;;;;;;;50.58;25.88;;;;;;;;;;5049150;28;20155;-63
2023/10/28 01:44:18;;;;;;;47.72;23.83;;;;;;;;;;5050017;28;20037;-63
2023/10/28 01:46:44;;;;;;;45.30;22.50;;;;;;;;;;5050135;28;20049;-63
2023/10/28 01:49:10;;;;;;;40.42;22.42;;;;;;;;;;5050226;28;20124;-63
2023/10/28 01:51:37;;;;;;;41.10;22.58;;;;;;;;;;5049796;28;20041;-63
2023/10/28 01:54:03;;;;;;;43.15;22.33;;;;;;;;;;5013071;28;1066196;-63
2023/10/28 01:56:29;;;;;;;43.95;22.95;;;;;;;;;;5050825;28;20549;-63
2023/10/28 01:58:55;;;;;;;41.00;21.00;;;;;;;;;;5050325;28;20466;-63
2023/10/28 02:01:25;;;;;;;40.38;21.70;;;;;;;;;;5051001;28;20663;-63
2023/10/28 02:03:51;;;;;;;49.42;21.98;;;;;;;;;;5050897;28;20041;-63
2023/10/28 02:06:17;;;;;;;37.50;20.45;;;;;;;;;;5050477;28;20041;-63
2023/10/28 02:08:43;;;;;;;37.67;20.20;;;;;;;;;;5050902;28;20175;-63
2023/10/28 02:11:09;;;;;;;36.15;20.27;;;;;;;;;;5050799;28;20491;-63
2023/10/28 02:13:36;;;;;;;34.05;19.30;;;;;;;;;;5050273;28;20041;-63
2023/10/28 02:16:02;;;;;;;32.28;20.05;;;;;;;;;;5050772;28;20480;-63
2023/10/28 02:18:28;;;;;;;32.45;19.27;;;;;;;;;;5050461;28;20033;-63
2023/10/28 02:20:54;;;;;;;29.95;17.65;;;;;;;;;;5050409;28;20041;-63
2023/10/28 02:23:20;;;;;;;36.33;18.77;;;;;;;;;;5050771;28;20041;-63
2023/10/28 02:25:46;;;;;;;33.72;18.13;;;;;;;;;;5050246;28;20071;-63
2023/10/28 02:28:12;;;;;;;35.00;19.00;;;;;;;;;;5050338;28;20039;-63
2023/10/28 02:30:39;;;;;;;33.17;18.13;;;;;;;;;;5050763;28;20128;-63
2023/10/28 02:33:05;;;;;;;32.70;17.85;;;;;;;;;;5050262;28;20077;-63
2023/10/28 02:35:31;;;;;;;37.38;17.60;;;;;;;;;;5049961;28;20047;-63
2023/10/28 02:37:57;;;;;;;34.15;17.13;;;;;;;;;;5050689;28;20506;-63
2023/10/28 02:40:23;;;;;;;28.42;17.10;;;;;;;;;;5050494;28;20100;-63
2023/10/28 02:42:49;;;;;;;30.60;16.45;;;;;;;;;;5050256;28;20084;-63
2023/10/28 02:45:15;;;;;;;30.40;17.23;;;;;;;;;;5050538;28;20692;-63
2023/10/28 02:47:41;;;;;;;27.52;15.52;;;;;;;;;;5050341;28;20095;-63
2023/10/28 02:50:08;;;;;;;31.13;16.45;;;;;;;;;;5050080;28;20045;-63
2023/10/28 02:52:34;;;;;;;32.63;16.20;;;;;;;;;;5050367;28;20044;-63
2023/10/28 02:55:00;;;;;;;35.97;16.95;;;;;;;;;;5053650;28;20095;-63
2023/10/28 02:57:26;;;;;;;25.27;15.65;;;;;;;;;;5053268;28;20053;-63
2023/10/28 02:59:52;;;;;;;30.23;15.98;;;;;;;;;;5053774;28;20476;-63
2023/10/28 03:02:19;;;;;;;28.35;15.82;;;;;;;;;;5053957;28;20037;-63
2023/10/28 03:04:45;;;;;;;31.25;15.70;;;;;;;;;;5053524;28;20037;-63
2023/10/28 03:07:11;;;;;;;33.10;15.80;;;;;;;;;;5035713;28;20067;-63
2023/10/28 03:09:38;;;;;;;28.67;15.23;;;;;;;;;;5053818;28;20041;-63
2023/10/28 03:12:05;;;;;;;25.52;14.63;;;;;;;;;;5053612;28;20052;-63
2023/10/28 03:14:31;;;;;;;27.35;15.20;;;;;;;;;;5053811;28;20047;-63
2023/10/28 03:16:57;;;;;;;26.88;15.27;;;;;;;;;;5035373;28;20041;-63
2023/10/28 03:19:23;;;;;;;32.53;16.48;;;;;;;;;;5035615;28;20048;-63
2023/10/28 03:21:49;;;;;;;32.75;16.35;;;;;;;;;;5053232;28;20041;-63
2023/10/28 03:24:15;;;;;;;24.15;14.65;;;;;;;;;;5053449;28;20052;-63
2023/10/28 03:26:41;;;;;;;21.95;13.95;;;;;;;;;;5053260;28;20041;-63
2023/10/28 03:29:07;;;;;;;30.83;15.40;;;;;;;;;;5053008;28;20048;-63
2023/10/28 03:31:33;;;;;;;24.65;13.90;;;;;;;;;;5053043;28;20044;-63
2023/10/28 03:33:59;;;;;;;30.35;15.07;;;;;;;;;;5053209;28;20048;-63
2023/10/28 03:36:25;;;;;;;27.25;14.80;;;;;;;;;;5052856;28;20091;-63
2023/10/28 03:38:51;;;;;;;25.02;13.98;;;;;;;;;;5053108;28;20713;-63
2023/10/28 03:41:18;;;;;;;27.98;14.52;;;;;;;;;;5053054;28;20041;-63
2023/10/28 03:43:45;;;;;;;32.20;14.35;;;;;;;;;;5052852;28;20521;-63
2023/10/28 03:46:26;;;;;;;23.15;14.40;;;;;;;;;;5052816;28;20044;-63
2023/10/28 03:48:52;;;;;;;24.40;13.95;;;;;;;;;;5052827;28;20041;-63
2023/10/28 03:51:18;;;;;;;27.52;14.05;;;;;;;;;;5052658;28;20411;-63
2023/10/28 03:53:44;;;;;;;24.05;14.02;;;;;;;;;;5052633;28;20064;-63
2023/10/28 03:56:10;;;;;;;26.70;13.82;;;;;;;;;;5052529;28;20052;-63
2023/10/28 03:58:36;;;;;;;21.02;13.52;;;;;;;;;;5052542;28;20383;-63
2023/10/28 04:01:02;;;;;;;21.90;14.65;;;;;;;;;;5052817;28;20041;-63
2023/10/28 04:03:29;;;;;;;24.15;13.75;;;;;;;;;;5052777;28;20052;-63
2023/10/28 04:05:55;;;;;;;25.80;14.18;;;;;;;;;;5051230;28;20049;-63
2023/10/28 04:08:21;;;;;;;27.95;14.43;;;;;;;;;;5052745;28;20083;-63
2023/10/28 04:10:47;;;;;;;28.75;14.88;;;;;;;;;;5052693;28;20483;-63
2023/10/28 04:13:13;;;;;;;43.33;16.70;;;;;;;;;;5052226;28;20045;-63
2023/10/28 04:15:39;;;;;;;28.17;15.38;;;;;;;;;;5052368;28;20048;-63
2023/10/28 04:18:06;;;;;;;31.05;14.98;;;;;;;;;;5052522;28;20112;-63
2023/10/28 04:20:33;;;;;;;28.90;15.90;;;;;;;;;;5051851;28;20033;-63
2023/10/28 04:22:59;;;;;;;28.40;14.98;;;;;;;;;;5052636;28;20628;-63
2023/10/28 04:25:25;;;;;;;32.58;16.05;;;;;;;;;;5052246;28;20178;-63
2023/10/28 04:27:51;;;;;;;35.20;16.17;;;;;;;;;;5052001;28;20052;-63
2023/10/28 04:30:18;;;;;;;35.55;16.38;;;;;;;;;;5052289;28;20044;-63
2023/10/28 04:32:44;;;;;;;37.42;16.83;;;;;;;;;;5052080;28;20048;-63
2023/10/28 04:35:10;;;;;;;29.35;16.73;;;;;;;;;;5051772;28;20041;-63
2023/10/28 04:37:36;;;;;;;35.67;17.55;;;;;;;;;;5051836;28;20041;-63
2023/10/28 04:40:06;;;;;;;37.85;17.15;;;;;;;;;;5051649;28;20041;-63
2023/10/28 04:42:32;;;;;;;35.78;16.83;;;;;;;;;;5051688;28;20040;-63
2023/10/28 04:44:58;;;;;;;39.72;18.25;;;;;;;;;;5052006;28;20029;-63
2023/10/28 04:47:24;;;;;;;37.63;17.15;;;;;;;;;;5051484;28;20045;-63
2023/10/28 04:49:50;;;;;;;35.83;16.67;;;;;;;;;;5051541;28;20041;-63
2023/10/28 04:52:20;;;;;;;35.35;17.63;;;;;;;;;;5033698;28;20068;-63
2023/10/28 04:54:46;;;;;;;35.75;17.42;;;;;;;;;;5051482;28;20053;-63
2023/10/28 04:57:12;;;;;;;38.75;18.52;;;;;;;;;;5051264;28;20521;-63
2023/10/28 04:59:39;;;;;;;42.92;19.65;;;;;;;;;;5033773;28;20036;-63
2023/10/28 05:02:05;;;;;;;41.22;19.38;;;;;;;;;;5051654;28;20095;-63
2023/10/28 05:04:31;;;;;;;37.53;18.00;;;;;;;;;;5051289;28;20390;-63
2023/10/28 05:06:58;;;;;;;37.38;17.85;;;;;;;;;;5051451;28;20490;-63
2023/10/28 05:09:24;;;;;;;39.83;17.65;;;;;;;;;;5051485;28;20064;-63
2023/10/28 05:11:56;;;;;;;35.78;17.38;;;;;;;;;;5050990;28;20472;-63
2023/10/28 05:14:23;;;;;;;37.38;17.08;;;;;;;;;;5051381;28;20103;-63
2023/10/28 05:16:49;;;;;;;37.63;17.90;;;;;;;;;;5051245;28;20094;-63
2023/10/28 05:19:18;;;;;;;34.35;17.38;;;;;;;;;;5031085;28;20045;-63
2023/10/28 05:21:44;;;;;;;27.45;15.88;;;;;;;;;;5031516;28;20108;-63
2023/10/28 05:24:10;;;;;;;34.25;16.58;;;;;;;;;;5031472;28;20590;-63
2023/10/28 05:26:37;;;;;;;32.45;17.27;;;;;;;;;;5044904;28;20041;-63
2023/10/28 05:29:04;;;;;;;34.25;16.58;;;;;;;;;;5051209;28;20045;-63
2023/10/28 05:31:30;;;;;;;32.88;16.35;;;;;;;;;;5051194;28;20064;-63
2023/10/28 05:33:56;;;;;;;32.92;16.58;;;;;;;;;;5050461;28;20041;-63
2023/10/28 05:36:22;;;;;;;33.03;16.27;;;;;;;;;;5051078;28;20045;-63
2023/10/28 05:38:48;;;;;;;28.70;15.60;;;;;;;;;;5051099;28;20106;-63
2023/10/28 05:41:14;;;;;;;28.58;16.05;;;;;;;;;;5050591;28;20121;-63
2023/10/28 05:43:40;;;;;;;26.90;15.60;;;;;;;;;;5050849;28;20538;-63
2023/10/28 05:46:06;;;;;;;30.70;15.35;;;;;;;;;;5050659;28;20045;-63
2023/10/28 05:48:33;;;;;;;31.35;16.40;;;;;;;;;;5050707;28;20052;-63
2023/10/28 05:50:59;;;;;;;28.05;14.73;;;;;;;;;;5051040;28;20080;-63
2023/10/28 05:53:25;;;;;;;29.73;15.15;;;;;;;;;;5050435;28;20057;-63
2023/10/28 05:55:52;;;;;;;26.67;14.35;;;;;;;;;;5050486;28;20041;-63
2023/10/28 05:58:18;;;;;;;30.10;15.05;;;;;;;;;;5050724;28;20040;-63
2023/10/28 06:00:44;;;;;;;23.13;13.35;;;;;;;;;;5050871;28;20503;-63
2023/10/28 06:03:12;;;;;;;28.67;14.73;;;;;;;;;;5050526;28;20369;-63
2023/10/28 06:05:38;;;;;;;28.80;14.18;;;;;;;;;;5050850;28;20045;-63
2023/10/28 06:08:04;;;;;;;25.83;14.23;;;;;;;;;;5050565;28;20084;-63
2023/10/28 06:10:30;;;;;;;29.85;14.50;;;;;;;;;;5050518;28;20430;-63
2023/10/28 06:12:57;;;;;;;28.08;13.88;;;;;;;;;;5050509;28;20049;-63
2023/10/28 06:15:24;;;;;;;27.80;12.77;;;;;;;;;;5032683;28;20098;-63
2023/10/28 06:17:51;;;;;;;26.67;13.85;;;;;;;;;;5050232;28;20044;-63
2023/10/28 06:20:17;;;;;;;22.25;13.20;;;;;;;;;;5050612;28;20120;-63
2023/10/28 06:22:43;;;;;;;24.05;12.82;;;;;;;;;;5050815;28;20041;-63
2023/10/28 06:25:09;;;;;;;22.00;12.82;;;;;;;;;;5050059;28;20045;-63
2023/10/28 06:27:35;;;;;;;20.23;12.63;;;;;;;;;;5050649;28;20159;-63
2023/10/28 06:30:01;;;;;;;17.70;11.98;;;;;;;;;;5054520;28;20051;-63
2023/10/28 06:32:27;;;;;;;18.27;11.75;;;;;;;;;;5053795;28;20044;-63
2023/10/28 06:34:54;;;;;;;20.67;12.35;;;;;;;;;;5054477;28;20078;-63
2023/10/28 06:37:20;;;;;;;21.77;11.52;;;;;;;;;;5053879;28;20045;-63
2023/10/28 06:39:47;;;;;;;20.65;11.48;;;;;;;;;;5053552;28;20130;-63
2023/10/28 06:42:13;;;;;;;17.77;11.68;;;;;;;;;;5054085;28;20033;-63
2023/10/28 06:44:39;;;;;;;21.33;11.40;;;;;;;;;;5054139;28;20055;-63
2023/10/28 06:47:06;;;;;;;21.65;11.68;;;;;;;;;;5053670;28;20060;-63
2023/10/28 06:49:32;;;;;;;20.23;11.10;;;;;;;;;;5053956;28;20450;-63
2023/10/28 06:51:58;;;;;;;23.98;10.88;;;;;;;;;;5054000;28;20124;-64
2023/10/28 06:54:24;;;;;;;17.23;10.48;;;;;;;;;;5053235;28;20049;-63
2023/10/28 06:56:51;;;;;;;15.88;10.25;;;;;;;;;;5053820;28;20503;-63
2023/10/28 06:59:17;;;;;;;15.70;10.15;;;;;;;;;;5036287;28;20070;-63
2023/10/28 07:01:44;;;;;;;18.40;10.05;;;;;;;;;;5035266;28;20648;-63
2023/10/28 07:04:13;;;;;;;19.67;10.23;;;;;;;;;;5035965;28;20133;-63
2023/10/28 07:06:42;;;;;;;15.18;9.38;;;;;;;;;;5053635;28;20045;-63
2023/10/28 07:09:08;;;;;;;19.27;9.32;;;;;;;;;;5035355;28;20479;-63
2023/10/28 07:11:34;;;;;;;15.32;8.82;;;;;;;;;;5053693;28;20041;-63
2023/10/28 07:14:00;;;;;;;14.40;8.38;;;;;;;;;;5052842;28;20095;-63
2023/10/28 07:16:27;;;;;;;16.73;8.13;;;;;;;;;;5052786;28;20044;-63
2023/10/28 07:18:53;;;;;;;14.45;7.95;;;;;;;;;;5053364;28;20115;-63
2023/10/28 07:21:20;;;;;;;15.70;8.00;;;;;;;;;;5053313;28;20072;-63
2023/10/28 07:23:46;;;;;;;16.13;7.43;;;;;;;;;;5052969;28;20048;-63
2023/10/28 07:26:12;;;;;;;12.18;7.85;;;;;;;;;;5053052;28;20052;-63
2023/10/28 07:28:39;;;;;;;15.00;7.57;;;;;;;;;;5053021;28;20087;-63
2023/10/28 07:31:06;;;;;;;11.60;7.93;;;;;;;;;;5052568;28;20076;-63
2023/10/28 07:33:32;;;;;;;13.25;8.40;;;;;;;;;;5051848;28;20055;-63
2023/10/28 07:36:02;;;;;;;15.18;7.70;;;;;;;;;;5052902;28;20383;-63
2023/10/28 07:38:28;;;;;;;13.85;7.85;;;;;;;;;;5034751;28;20087;-63
2023/10/28 07:40:55;;;;;;;16.95;8.35;;;;;;;;;;5051843;28;20040;-63
2023/10/28 07:43:21;;;;;;;12.80;7.25;;;;;;;;;;5034307;28;20391;-63
2023/10/28 07:45:47;;;;;;;12.27;7.82;;;;;;;;;;5052328;28;20399;-63
2023/10/28 07:48:14;;;;;;;14.23;8.07;;;;;;;;;;5052102;28;20091;-63
2023/10/28 07:50:40;;;;;;;15.02;7.38;;;;;;;;;;5052200;28;20059;-63
2023/10/28 07:53:06;;;;;;;16.35;7.70;;;;;;;;;;5033708;28;20055;-63
2023/10/28 07:55:33;;;;;;;13.93;7.03;;;;;;;;;;5052113;28;20640;-63
2023/10/28 07:57:59;;;;;;;12.05;7.10;;;;;;;;;;5034880;28;20059;-63
2023/10/28 08:00:26;;;;;;;12.40;6.78;;;;;;;;;;5052691;28;20044;-63
2023/10/28 08:02:55;;;;;;;14.68;7.05;;;;;;;;;;5052343;28;20679;-63
2023/10/28 08:05:21;;;;;;;12.70;6.75;;;;;;;;;;5052685;28;20049;-63
2023/10/28 08:07:48;;;;;;;16.05;7.40;;;;;;;;;;5052717;28;20036;-63
2023/10/28 08:10:14;;;;;;;12.65;6.60;;;;;;;;;;5051996;28;20044;-63
2023/10/28 08:12:40;;;;;;;9.48;6.35;;;;;;;;;;5052418;28;20430;-63
2023/10/28 08:15:10;;;;;;;12.40;6.50;;;;;;;;;;5052569;28;20502;-63
2023/10/28 08:17:36;;;;;;;9.40;6.40;;;;;;;;;;5051953;28;20276;-63
2023/10/28 08:20:05;;;;;;;15.55;6.85;;;;;;;;;;5051221;28;20041;-63
2023/10/28 08:22:31;;;;;;;11.80;6.55;;;;;;;;;;5050898;28;20499;-63
2023/10/28 08:24:57;;;;;;;10.13;6.38;;;;;;;;;;5050437;28;20292;-63
2023/10/28 08:27:23;;;;;;;11.05;6.35;;;;;;;;;;5050493;28;20326;-63
2023/10/28 08:29:51;;;;;;;10.95;6.07;;;;;;;;;;5050786;28;20128;-63
2023/10/28 08:32:18;;;;;;;13.27;6.30;;;;;;;;;;5050429;28;20037;-63
2023/10/28 08:34:44;;;;;;;10.70;6.05;;;;;;;;;;5050582;28;20048;-63
2023/10/28 08:37:13;;;;;;;11.80;6.40;;;;;;;;;;5050193;28;20045;-63
2023/10/28 08:39:40;;;;;;;8.90;5.53;;;;;;;;;;5050095;28;20120;-63
2023/10/28 08:42:06;;;;;;;11.77;5.95;;;;;;;;;;5050649;28;20357;-63
2023/10/28 08:44:33;;;;;;;10.13;6.13;;;;;;;;;;5050526;28;20582;-63
2023/10/28 08:47:06;;;;;;;9.40;5.68;;;;;;;;;;5049860;28;20041;-63
2023/10/28 08:49:33;;;;;;;9.75;5.72;;;;;;;;;;5050441;28;20045;-63
2023/10/28 08:52:01;;;;;;;9.90;5.68;;;;;;;;;;5049833;28;20119;-63
2023/10/28 08:54:28;;;;;;;10.60;6.18;;;;;;;;;;5049546;28;20099;-63
2023/10/28 08:56:58;;;;;;;11.50;5.93;;;;;;;;;;5050177;28;20487;-63
2023/10/28 08:59:25;;;;;;;9.70;5.63;;;;;;;;;;5032060;28;20037;-63
2023/10/28 09:01:51;;;;;;;10.77;5.82;;;;;;;;;;5049553;28;20037;-63
2023/10/28 09:04:21;;;;;;;10.57;6.35;;;;;;;;;;5050084;28;20052;-63
2023/10/28 09:06:47;;;;;;;10.13;5.63;;;;;;;;;;5049749;28;20041;-63
2023/10/28 09:09:13;;;;;;;12.68;6.45;;;;;;;;;;5049694;28;20048;-63
2023/10/28 09:11:40;;;;;;;8.40;5.65;;;;;;;;;;5050078;28;20466;-63
2023/10/28 09:14:07;;;;;;;9.65;5.90;;;;;;;;;;5049930;28;20041;-63
2023/10/28 09:16:34;;;;;;;14.25;7.03;;;;;;;;;;5049460;28;20336;-63
2023/10/28 09:19:00;;;;;;;11.27;6.50;;;;;;;;;;5049404;28;20491;-63
2023/10/28 09:21:26;;;;;;;13.90;6.47;;;;;;;;;;5049694;28;20124;-63
2023/10/28 09:23:52;;;;;;;10.93;6.65;;;;;;;;;;5049439;28;20052;-63
2023/10/28 09:26:18;;;;;;;12.32;6.32;;;;;;;;;;5049678;28;20049;-63
2023/10/28 09:28:45;;;;;;;12.70;6.75;;;;;;;;;;5049399;28;20565;-63
2023/10/28 09:31:11;;;;;;;10.93;6.20;;;;;;;;;;5031454;28;20445;-63
2023/10/28 09:33:37;;;;;;;10.73;5.85;;;;;;;;;;5049660;28;20037;-63
2023/10/28 09:36:04;;;;;;;12.77;6.53;;;;;;;;;;5049654;28;20041;-63
2023/10/28 09:38:30;;;;;;;10.13;6.18;;;;;;;;;;5049083;28;20040;-63
2023/10/28 09:40:58;;;;;;;14.68;6.60;;;;;;;;;;5031573;28;20649;-63
2023/10/28 09:43:24;;;;;;;11.43;6.32;;;;;;;;;;5049547;28;20037;-63
2023/10/28 09:45:51;;;;;;;9.85;6.35;;;;;;;;;;5049102;28;20384;-63
2023/10/28 09:48:18;;;;;;;9.73;6.20;;;;;;;;;;5049478;28;20041;-63
2023/10/28 09:50:52;;;;;;;13.57;5.90;;;;;;;;;;5049180;28;20076;-63
2023/10/28 09:53:21;;;;;;;13.32;6.07;;;;;;;;;;5049082;28;20416;-63
2023/10/28 09:55:49;;;;;;;11.30;6.15;;;;;;;;;;5049093;28;20077;-63
2023/10/28 09:58:15;;;;;;;9.93;5.60;;;;;;;;;;5031581;28;20040;-63
2023/10/28 10:00:42;;;;;;;11.82;5.20;;;;;;;;;;5048998;28;20425;-63
2023/10/28 10:03:08;;;;;;;11.07;5.85;;;;;;;;;;5050433;28;20037;-63
2023/10/28 10:05:37;;;;;;;14.32;8.55;;;;;;;;;;5053541;28;20123;-63
2023/10/28 10:08:03;;;;;;;16.25;8.43;;;;;;;;;;5053125;28;20127;-63
2023/10/28 10:10:29;;;;;;;11.07;6.72;;;;;;;;;;5053909;28;20048;-63
2023/10/28 10:13:02;;;;;;;11.85;7.10;;;;;;;;;;5053416;28;20052;-63
2023/10/28 10:15:32;;;;;;;12.00;5.22;;;;;;;;;;5052852;28;20041;-63
2023/10/28 10:18:10;;;;;;;10.88;6.22;;;;;;;;;;5053253;28;20447;-63
2023/10/28 10:20:36;;;;;;;11.15;5.80;;;;;;;;;;5052890;28;20052;-63
2023/10/28 10:23:03;;;;;;;9.93;5.80;;;;;;;;;;5052819;28;20403;-63
2023/10/28 10:25:33;;;;;;;8.90;6.07;;;;;;;;;;5053117;28;20132;-63
2023/10/28 10:28:12;;;;;;;13.57;7.78;;;;;;;;;;5053158;28;20045;-63
2023/10/28 10:30:38;;;;;;;9.48;6.03;;;;;;;;;;5052664;28;20553;-63
2023/10/28 10:33:04;;;;;;;12.68;5.47;;;;;;;;;;5053005;28;20432;-63
2023/10/28 10:35:32;;;;;;;12.55;5.20;;;;;;;;;;5052905;28;20380;-63
2023/10/28 10:38:03;;;;;;;12.82;5.55;;;;;;;;;;5050026;28;20041;-63
2023/10/28 10:40:32;;;;;;;8.88;4.93;;;;;;;;;;5052875;28;20507;-63
2023/10/28 10:43:04;;;;;;;10.82;4.93;;;;;;;;;;5035850;28;20549;-63
2023/10/28 10:45:30;;;;;;;12.50;5.18;;;;;;;;;;5053806;28;20036;-63
2023/10/28 10:47:58;;;;;;;6.13;4.30;;;;;;;;;;5053664;28;20033;-63
2023/10/28 10:50:24;;;;;;;10.75;4.90;;;;;;;;;;5054015;28;20528;-63
2023/10/28 10:52:50;;;;;;;11.68;5.80;;;;;;;;;;5053362;28;20128;-63
2023/10/28 10:55:23;;;;;;;13.02;5.45;;;;;;;;;;5054046;28;20073;-63
2023/10/28 10:57:50;;;;;;;11.68;5.90;;;;;;;;;;5035856;28;20491;-63
2023/10/28 11:00:18;;;;;;;10.38;5.03;;;;;;;;;;5053344;28;20353;-63
2023/10/28 11:02:45;;;;;;;9.40;4.97;;;;;;;;;;5053854;28;20090;-63
2023/10/28 11:05:11;;;;;;;8.90;5.63;;;;;;;;;;5053814;28;20041;-63
2023/10/28 11:07:37;;;;;;;11.52;6.38;;;;;;;;;;5053416;28;20052;-63
2023/10/28 11:10:08;;;;;;;11.45;5.40;;;;;;;;;;5053782;28;20171;-63
2023/10/28 11:12:34;;;;;;;12.57;6.55;;;;;;;;;;5053467;28;20041;-63
2023/10/28 11:15:00;;;;;;;13.13;7.35;;;;;;;;;;5052759;28;20559;-63
2023/10/28 11:17:26;;;;;;;11.90;7.38;;;;;;;;;;5048455;28;20117;-63
2023/10/28 11:19:53;;;;;;;9.10;4.70;;;;;;;;;;5015741;28;20037;-63
2023/10/28 11:22:19;;;;;;;8.07;5.03;;;;;;;;;;5032986;28;20177;-63
2023/10/28 11:24:45;;;;;;;6.50;4.18;;;;;;;;;;5033021;28;20049;-63
2023/10/28 11:27:22;;;;;;;8.18;4.53;;;;;;;;;;5052016;28;20090;-63
2023/10/28 11:29:48;;;;;;;9.23;4.78;;;;;;;;;;5052557;28;20059;-63
2023/10/28 11:32:14;;;;;;;9.95;4.47;;;;;;;;;;5052735;28;20041;-63
2023/10/28 11:34:41;;;;;;;9.10;4.15;;;;;;;;;;5052744;28;20044;-63
2023/10/28 11:37:07;;;;;;;12.63;4.10;;;;;;;;;;5052254;28;20128;-63
2023/10/28 11:39:34;;;;;;;6.65;3.60;;;;;;;;;;5053143;28;20048;-63
2023/10/28 11:42:27;;;;;;;8.77;4.32;;;;;;;;;;5051856;28;20048;-63
2023/10/28 11:44:53;;;;;;;10.95;3.97;;;;;;;;;;5048520;28;20041;-63
2023/10/28 11:47:19;;;;;;;12.38;4.22;;;;;;;;;;5051720;28;20041;-63
2023/10/28 11:49:46;;;;;;;9.65;4.30;;;;;;;;;;5052648;28;20048;-63
2023/10/28 11:52:13;;;;;;;10.35;3.80;;;;;;;;;;5052241;28;20044;-63
2023/10/28 11:54:39;;;;;;;7.68;4.00;;;;;;;;;;5052078;28;20527;-63
2023/10/28 11:57:05;;;;;;;6.70;3.40;;;;;;;;;;5051748;28;20461;-64
2023/10/28 11:59:31;;;;;;;5.88;3.70;;;;;;;;;;5018054;28;20517;-63
2023/10/28 12:01:58;;;;;;;7.60;3.42;;;;;;;;;;5052666;28;20399;-63
2023/10/28 12:04:25;;;;;;;7.35;3.72;;;;;;;;;;5051972;28;20547;-63
2023/10/28 12:06:51;;;;;;;7.53;3.40;;;;;;;;;;5051619;28;20067;-63
2023/10/28 12:09:17;;;;;;;10.32;3.72;;;;;;;;;;5034694;28;20044;-63
2023/10/28 12:11:44;;;;;;;7.38;3.38;;;;;;;;;;5051239;28;20124;-63
2023/10/28 12:14:10;;;;;;;7.30;3.42;;;;;;;;;;5052169;28;20487;-63
2023/10/28 12:16:37;;;;;;;7.43;3.22;;;;;;;;;;5034223;28;20041;-63
2023/10/28 12:19:08;;;;;;;9.10;3.33;;;;;;;;;;5052313;28;20112;-63
2023/10/28 12:21:35;;;;;;;7.28;3.35;;;;;;;;;;5052109;28;20053;-63
2023/10/28 12:24:01;;;;;;;8.95;3.28;;;;;;;;;;5052120;28;20063;-63
2023/10/28 12:26:27;;;;;;;8.40;3.60;;;;;;;;;;5051331;28;20045;-63
2023/10/28 12:28:53;;;;;;;10.80;3.70;;;;;;;;;;5051850;28;20167;-63
2023/10/28 12:31:20;;;;;;;9.07;3.22;;;;;;;;;;5051763;28;20044;-63
2023/10/28 12:33:46;;;;;;;7.28;2.88;;;;;;;;;;5033580;28;20076;-63
2023/10/28 12:36:12;;;;;;;8.43;3.63;;;;;;;;;;5051168;28;20075;-63
2023/10/28 12:38:38;;;;;;;8.70;3.75;;;;;;;;;;5051239;28;20055;-63
2023/10/28 12:41:04;;;;;;;7.95;3.45;;;;;;;;;;5050786;28;20041;-63
2023/10/28 12:43:30;;;;;;;6.05;3.10;;;;;;;;;;5016055;28;20040;-63
2023/10/28 12:45:56;;;;;;;7.40;3.10;;;;;;;;;;5017224;28;20442;-63
2023/10/28 12:48:22;;;;;;;9.65;3.05;;;;;;;;;;5033994;28;20033;-63
2023/10/28 12:50:49;;;;;;;6.85;3.47;;;;;;;;;;5051500;28;20148;-63
2023/10/28 12:53:15;;;;;;;8.40;2.90;;;;;;;;;;5051781;28;20092;-63
2023/10/28 12:55:44;;;;;;;7.40;2.92;;;;;;;;;;5051656;28;20073;-63
2023/10/28 12:58:10;;;;;;;7.78;2.50;;;;;;;;;;5050102;28;20040;-63
2023/10/28 13:00:40;;;;;;;10.02;3.10;;;;;;;;;;5046685;28;20115;-63
2023/10/28 13:03:06;;;;;;;8.73;2.67;;;;;;;;;;5051103;28;20056;-63
2023/10/28 13:05:33;;;;;;;6.63;2.70;;;;;;;;;;5046326;28;20048;-63
2023/10/28 13:07:59;;;;;;;11.40;4.40;;;;;;;;;;5051308;28;20052;-64
2023/10/28 13:10:25;;;;;;;12.82;3.65;;;;;;;;;;5050748;28;20089;-64
2023/10/28 13:12:53;;;;;;;7.03;2.85;;;;;;;;;;5050468;28;20099;-64
2023/10/28 13:15:19;;;;;;;7.00;2.67;;;;;;;;;;5051130;28;20049;-64
2023/10/28 13:17:46;;;;;;;7.70;2.78;;;;;;;;;;5050054;28;20086;-64
2023/10/28 13:20:12;;;;;;;7.93;2.88;;;;;;;;;;5031398;28;20041;-64
2023/10/28 13:22:39;;;;;;;4.80;2.42;;;;;;;;;;5049377;28;20041;-64
2023/10/28 13:25:11;;;;;;;4.38;2.30;;;;;;;;;;5049925;28;20309;-64
2023/10/28 13:27:37;;;;;;;10.30;3.55;;;;;;;;;;5049039;28;20499;-64
2023/10/28 13:30:04;;;;;;;13.23;4.90;;;;;;;;;;5049833;28;20533;-64
2023/10/28 13:32:31;;;;;;;12.43;5.03;;;;;;;;;;5049517;28;20033;-64
2023/10/28 13:34:57;;;;;;;11.63;2.92;;;;;;;;;;5048833;28;20089;-64
2023/10/28 13:37:23;;;;;;;5.45;2.22;;;;;;;;;;5049599;28;20086;-64
2023/10/28 13:39:49;;;;;;;6.03;2.35;;;;;;;;;;5049229;28;20036;-64
2023/10/28 13:42:15;;;;;;;6.18;2.30;;;;;;;;;;5049354;28;20493;-64
2023/10/28 13:44:41;;;;;;;6.85;2.80;;;;;;;;;;5031588;28;20041;-64
2023/10/28 13:47:07;;;;;;;9.23;2.72;;;;;;;;;;5049369;28;20045;-64
2023/10/28 13:49:33;;;;;;;11.73;2.75;;;;;;;;;;5049186;28;20081;-64
2023/10/28 13:52:01;;;;;;;8.38;2.63;;;;;;;;;;5031452;28;20049;-64
2023/10/28 13:54:27;;;;;;;9.85;2.90;;;;;;;;;;5031259;28;20057;-64
2023/10/28 13:56:54;;;;;;;9.88;2.30;;;;;;;;;;5048695;28;20041;-64
2023/10/28 13:59:20;;;;;;;7.97;2.72;;;;;;;;;;5049140;28;20069;-64
2023/10/28 14:01:46;;;;;;;4.80;2.28;;;;;;;;;;5049358;28;20029;-64
2023/10/28 14:04:12;;;;;;;5.55;2.22;;;;;;;;;;5048827;28;20044;-64
2023/10/28 14:06:38;;;;;;;7.53;2.22;;;;;;;;;;5049232;28;20044;-64
2023/10/28 14:09:05;;;;;;;10.05;2.70;;;;;;;;;;5049042;28;20045;-64
2023/10/28 14:11:32;;;;;;;6.38;2.45;;;;;;;;;;5048779;28;20048;-64
2023/10/28 14:13:58;;;;;;;7.85;2.88;;;;;;;;;;5049329;28;20037;-64
2023/10/28 14:16:24;;;;;;;7.32;3.00;;;;;;;;;;5049026;28;20043;-64
2023/10/28 14:18:50;;;;;;;6.63;3.03;;;;;;;;;;5048631;28;20067;-64
2023/10/28 14:21:25;;;;;;;6.72;2.72;;;;;;;;;;5049253;28;20544;-64
2023/10/28 14:23:51;;;;;;;9.63;2.90;;;;;;;;;;5049117;28;20060;-64